Time;durP1;ratioP1;P1;durP2;ratioP2;P2;SDS_P1;SDS_P2;PMS_P1;PMS_P2;Temp;Humidity;BMP_temperature;BMP_pressure;BME280_temperature;BME280_humidity;BME280_pressure;Samples;Min_cycle;Max_cycle;Signal;HPM_P1;HPM_P2
2022/05/07 00:00:30;;;;;;;7.30;5.55;;;20.50;59.50;;;;;;4890827;28;90607;-69
2022/05/07 00:02:56;;;;;;;7.00;5.22;;;20.50;59.50;;;;;;4892275;28;87793;-70
2022/05/07 00:05:22;;;;;;;6.97;5.13;;;20.50;59.50;;;;;;4892211;28;87948;-70
2022/05/07 00:07:48;;;;;;;6.13;4.78;;;20.50;59.50;;;;;;4890183;28;87387;-71
2022/05/07 00:10:14;;;;;;;7.20;5.28;;;20.50;59.60;;;;;;4892302;28;86724;-69
2022/05/07 00:12:40;;;;;;;6.00;4.82;;;20.50;59.60;;;;;;4891610;28;88144;-71
2022/05/07 00:15:07;;;;;;;6.53;5.10;;;20.50;59.40;;;;;;4891802;28;87849;-69
2022/05/07 00:20:17;;;;;;;5.50;4.65;;;20.50;59.50;;;;;;4890558;28;87742;-71
2022/05/07 00:22:43;;;;;;;7.57;5.25;;;20.50;59.60;;;;;;4891203;28;87960;-69
2022/05/07 00:25:09;;;;;;;6.22;4.80;;;20.50;59.50;;;;;;4889514;28;90518;-72
2022/05/07 00:27:38;;;;;;;8.63;5.43;;;20.50;59.50;;;;;;4891305;28;87906;-71
2022/05/07 00:30:05;;;;;;;5.93;4.53;;;20.50;59.60;;;;;;4891685;28;87939;-70
2022/05/07 00:32:30;;;;;;;8.60;5.18;;;20.50;59.70;;;;;;4893112;28;88725;-71
2022/05/07 00:34:56;;;;;;;7.28;5.18;;;20.50;59.60;;;;;;4895975;28;88065;-72
2022/05/07 00:37:23;;;;;;;5.60;4.55;;;20.50;59.60;;;;;;4896095;28;87428;-70
2022/05/07 00:39:49;;;;;;;9.40;5.85;;;20.50;59.70;;;;;;4895436;28;88065;-71
2022/05/07 00:42:15;;;;;;;5.72;4.30;;;20.50;59.60;;;;;;4893748;28;91804;-71
2022/05/07 00:44:41;;;;;;;7.00;4.47;;;20.50;59.70;;;;;;4894970;28;88163;-71
2022/05/07 00:47:24;;;;;;;6.45;5.00;;;20.50;59.70;;;;;;4893995;28;87533;-71
2022/05/07 00:52:43;;;;;;;6.57;4.50;;;20.50;59.60;;;;;;4895282;28;87454;-69
2022/05/07 00:55:10;;;;;;;5.78;4.55;;;20.50;59.70;;;;;;4894981;28;88267;-71
2022/05/07 00:57:36;;;;;;;7.00;4.68;;;20.50;59.50;;;;;;4895457;28;87982;-72
2022/05/07 01:00:04;;;;;;;6.03;4.40;;;20.50;59.60;;;;;;4894590;28;86580;-70
2022/05/07 01:02:30;;;;;;;7.30;4.60;;;20.40;59.60;;;;;;4894255;28;88031;-71
2022/05/07 01:04:56;;;;;;;6.88;4.78;;;20.50;59.60;;;;;;4893589;28;90445;-69
2022/05/07 01:07:22;;;;;;;5.57;4.53;;;20.50;59.60;;;;;;4894490;28;88625;-71
2022/05/07 01:09:49;;;;;;;6.15;4.80;;;20.50;59.60;;;;;;4894903;28;87745;-72
2022/05/07 01:12:15;;;;;;;5.35;4.32;;;20.50;59.70;;;;;;4895119;28;87697;-70
2022/05/07 01:14:40;;;;;;;7.00;4.88;;;20.40;59.70;;;;;;4892874;28;91302;-71
2022/05/07 01:17:07;;;;;;;6.13;4.35;;;20.40;59.50;;;;;;4894975;28;86957;-69
2022/05/07 01:19:33;;;;;;;6.85;5.35;;;20.40;59.70;;;;;;4893136;28;89729;-71
2022/05/07 01:21:59;;;;;;;6.50;4.68;;;20.40;59.60;;;;;;4894090;28;89628;-71
2022/05/07 01:24:24;;;;;;;6.43;4.93;;;20.40;59.70;;;;;;4893970;28;87716;-72
2022/05/07 01:26:50;;;;;;;6.25;4.82;;;20.40;59.70;;;;;;4895210;28;87174;-72
2022/05/07 01:29:16;;;;;;;5.90;4.45;;;20.40;59.80;;;;;;4891985;28;88500;-70
2022/05/07 01:31:41;;;;;;;6.30;4.68;;;20.40;59.60;;;;;;4893486;28;89216;-71
2022/05/07 01:34:07;;;;;;;6.47;4.90;;;20.40;59.60;;;;;;4893781;28;87638;-69
2022/05/07 01:36:33;;;;;;;7.03;5.00;;;20.40;59.60;;;;;;4894534;28;87939;-71
2022/05/07 01:38:58;;;;;;;5.60;4.30;;;20.40;59.60;;;;;;4894210;28;87349;-71
2022/05/07 01:41:24;;;;;;;6.40;4.30;;;20.40;59.60;;;;;;4894986;28;87459;-70
2022/05/07 01:43:50;;;;;;;6.65;4.55;;;20.40;59.50;;;;;;4894266;28;87820;-70
2022/05/07 01:49:00;;;;;;;5.82;4.43;;;20.40;59.60;;;;;;4894872;28;87052;-71
2022/05/07 01:51:26;;;;;;;5.35;4.45;;;20.40;59.50;;;;;;4894492;28;87973;-72
2022/05/07 01:53:51;;;;;;;6.63;4.68;;;20.40;59.60;;;;;;4893904;28;88152;-71
2022/05/07 01:56:17;;;;;;;6.40;4.72;;;20.40;59.50;;;;;;4893292;28;88293;-71
2022/05/07 01:58:44;;;;;;;6.68;4.25;;;20.40;59.50;;;;;;4908768;28;89547;-71
2022/05/07 02:01:10;;;;;;;6.70;4.65;;;20.40;59.50;;;;;;4893902;28;87995;-71
2022/05/07 02:03:38;;;;;;;8.30;4.93;;;20.40;59.60;;;;;;4893762;28;88315;-69
2022/05/07 02:06:03;;;;;;;4.65;4.18;;;20.40;59.50;;;;;;4893600;28;87694;-70
2022/05/07 02:08:29;;;;;;;7.28;4.32;;;20.40;59.70;;;;;;4894226;28;88000;-72
2022/05/07 02:10:59;;;;;;;8.65;5.15;;;20.40;59.60;;;;;;4893863;28;87760;-71
2022/05/07 02:13:24;;;;;;;;;;;20.40;59.60;;;;;;4894927;28;88330;-72
2022/05/07 02:15:50;;;;;;;4.95;4.20;;;20.40;59.60;;;;;;4895785;28;87304;-71
2022/05/07 02:18:16;;;;;;;5.80;4.40;;;20.40;59.50;;;;;;4893724;28;87834;-71
2022/05/07 02:20:41;;;;;;;6.35;4.43;;;20.40;59.60;;;;;;4892340;28;89017;-68
2022/05/07 02:23:07;;;;;;;8.52;4.43;;;20.40;59.60;;;;;;4892742;28;88660;-71
2022/05/07 02:25:33;;;;;;;5.13;4.20;;;20.40;59.60;;;;;;4892579;28;87550;-69
2022/05/07 02:27:58;;;;;;;5.35;4.40;;;20.40;59.60;;;;;;4892956;28;88020;-71
2022/05/07 02:30:24;;;;;;;5.07;3.70;;;20.40;59.70;;;;;;4893269;28;87520;-71
2022/05/07 02:32:49;;;;;;;5.03;4.35;;;20.40;59.70;;;;;;4892673;28;87879;-71
2022/05/07 02:35:15;;;;;;;5.40;4.20;;;20.40;59.80;;;;;;4892301;28;87869;-71
2022/05/07 02:37:41;;;;;;;5.07;4.25;;;20.40;59.60;;;;;;4891783;28;90084;-69
2022/05/07 02:40:11;;;;;;;5.57;4.20;;;20.30;59.50;;;;;;4894272;28;88282;-71
2022/05/07 02:42:36;;;;;;;5.80;4.65;;;20.30;59.60;;;;;;4894006;28;88629;-71
2022/05/07 02:45:08;;;;;;;4.97;4.03;;;20.30;59.40;;;;;;4891252;28;88357;-71
2022/05/07 02:47:34;;;;;;;5.50;4.00;;;20.30;59.50;;;;;;4891713;28;91529;-70
2022/05/07 02:50:01;;;;;;;4.95;3.95;;;20.30;59.50;;;;;;4893809;28;88499;-71
2022/05/07 02:52:26;;;;;;;6.05;4.75;;;20.30;59.60;;;;;;4893633;28;87838;-71
2022/05/07 02:54:52;;;;;;;5.05;4.13;;;20.30;59.50;;;;;;4892465;28;88018;-72
2022/05/07 02:57:18;;;;;;;4.82;3.90;;;20.40;59.70;;;;;;4891300;28;88263;-70
2022/05/07 02:59:43;;;;;;;5.25;4.57;;;20.30;59.50;;;;;;4891159;28;90974;-71
2022/05/07 03:02:10;;;;;;;6.40;4.45;;;20.30;59.50;;;;;;4892376;28;87882;-69
2022/05/07 03:04:36;;;;;;;5.63;4.25;;;20.30;59.60;;;;;;4893180;28;87025;-72
2022/05/07 03:07:01;;;;;;;5.85;4.15;;;20.30;59.60;;;;;;4893229;28;87318;-71
2022/05/07 03:09:27;;;;;;;5.72;4.55;;;20.30;59.50;;;;;;4892630;28;88899;-70
2022/05/07 03:11:55;;;;;;;5.55;4.22;;;20.30;59.40;;;;;;4892592;28;90087;-68
2022/05/07 03:14:21;;;;;;;6.03;4.55;;;20.30;59.40;;;;;;4890913;28;88035;-71
2022/05/07 03:16:48;;;;;;;5.70;4.53;;;20.30;59.40;;;;;;4893322;28;87209;-71
2022/05/07 03:19:14;;;;;;;4.18;3.45;;;20.30;59.50;;;;;;4892919;28;88976;-71
2022/05/07 03:21:40;;;;;;;6.32;4.15;;;20.30;59.60;;;;;;4890614;28;90464;-71
2022/05/07 03:24:06;;;;;;;4.65;3.85;;;20.30;59.60;;;;;;4893336;28;87958;-69
2022/05/07 03:26:32;;;;;;;5.15;4.10;;;20.30;59.50;;;;;;4893419;28;86753;-69
2022/05/07 03:28:57;;;;;;;5.22;4.40;;;20.30;59.50;;;;;;4892997;28;87995;-70
2022/05/07 03:31:23;;;;;;;5.65;3.88;;;20.30;59.60;;;;;;4892606;28;88843;-73
2022/05/07 03:33:49;;;;;;;6.18;4.45;;;20.30;59.60;;;;;;4891629;28;89025;-70
2022/05/07 03:36:19;;;;;;;6.03;4.50;;;20.30;59.50;;;;;;4892164;28;87195;-69
2022/05/07 03:38:45;;;;;;;5.22;4.22;;;20.30;59.60;;;;;;4891967;28;87992;-73
2022/05/07 03:41:10;;;;;;;5.05;3.58;;;20.30;59.40;;;;;;4891946;28;87368;-71
2022/05/07 03:43:39;;;;;;;5.05;3.83;;;20.30;59.60;;;;;;4892406;28;87788;-68
2022/05/07 03:46:05;;;;;;;5.03;3.72;;;20.30;59.50;;;;;;4892487;28;87071;-71
2022/05/07 03:48:31;;;;;;;5.55;4.35;;;20.30;59.40;;;;;;4892924;28;88314;-72
2022/05/07 03:50:57;;;;;;;4.85;4.07;;;20.30;59.60;;;;;;4893022;28;87911;-71
2022/05/07 03:53:31;;;;;;;5.70;4.32;;;20.30;59.60;;;;;;4891573;28;87426;-71
2022/05/07 03:56:01;;;;;;;4.85;3.95;;;20.30;59.50;;;;;;4892139;28;87510;-71
2022/05/07 03:58:27;;;;;;;5.03;3.60;;;20.30;59.40;;;;;;4891880;28;89623;-72
2022/05/07 04:00:54;;;;;;;6.25;4.18;;;20.30;59.50;;;;;;4890579;28;89776;-72
2022/05/07 04:03:20;;;;;;;4.97;3.95;;;20.30;59.50;;;;;;4892328;28;88133;-72
2022/05/07 04:05:46;;;;;;;5.43;4.25;;;20.30;59.40;;;;;;4892449;28;87359;-71
2022/05/07 04:08:12;;;;;;;4.70;3.90;;;20.30;59.50;;;;;;4892958;28;88036;-72
2022/05/07 04:10:38;;;;;;;4.20;3.75;;;20.30;59.40;;;;;;4892378;28;87825;-68
2022/05/07 04:13:04;;;;;;;4.78;3.75;;;20.30;59.40;;;;;;4890821;28;87932;-68
2022/05/07 04:15:31;;;;;;;5.25;3.72;;;20.30;59.20;;;;;;4892019;28;87254;-70
2022/05/07 04:17:57;;;;;;;5.50;4.22;;;20.30;59.30;;;;;;4891228;28;88668;-71
2022/05/07 04:20:23;;;;;;;6.40;4.75;;;20.30;59.40;;;;;;4889580;28;90881;-69
2022/05/07 04:22:49;;;;;;;4.40;3.70;;;20.20;59.30;;;;;;4891494;28;88570;-71
2022/05/07 04:25:14;;;;;;;5.20;3.90;;;20.30;59.40;;;;;;4892453;28;87492;-71
2022/05/07 04:27:40;;;;;;;5.88;4.03;;;20.20;59.40;;;;;;4892452;28;87849;-72
2022/05/07 04:30:06;;;;;;;5.63;4.30;;;20.30;59.40;;;;;;4890047;28;89462;-71
2022/05/07 04:32:32;;;;;;;3.92;3.45;;;20.30;59.40;;;;;;4890249;28;87231;-72
2022/05/07 04:34:58;;;;;;;4.82;3.85;;;20.30;59.40;;;;;;4889020;28;89266;-71
2022/05/07 04:37:24;;;;;;;4.00;3.58;;;20.20;59.30;;;;;;4890615;28;88452;-67
2022/05/07 04:39:51;;;;;;;5.93;4.15;;;20.20;59.40;;;;;;4889986;28;91592;-68
2022/05/07 04:42:19;;;;;;;5.43;3.90;;;20.20;59.40;;;;;;4891298;28;88034;-70
2022/05/07 04:44:44;;;;;;;4.55;3.88;;;20.20;59.40;;;;;;4891646;28;87814;-72
2022/05/07 04:47:10;;;;;;;5.43;3.88;;;20.20;59.40;;;;;;4889864;28;91469;-69
2022/05/07 04:49:36;;;;;;;5.15;3.97;;;20.20;59.40;;;;;;4892112;28;87789;-70
2022/05/07 04:52:05;;;;;;;5.20;3.92;;;20.20;59.40;;;;;;4892441;28;87611;-70
2022/05/07 04:54:31;;;;;;;4.25;3.58;;;20.20;59.40;;;;;;4892010;28;88022;-69
2022/05/07 04:56:57;;;;;;;5.03;3.70;;;20.20;59.50;;;;;;4891991;28;87851;-71
2022/05/07 04:59:23;;;;;;;5.10;3.80;;;20.30;59.50;;;;;;4891354;28;87766;-71
2022/05/07 05:01:49;;;;;;;5.93;3.42;;;20.30;59.40;;;;;;4891191;28;88695;-71
2022/05/07 05:04:15;;;;;;;4.72;3.72;;;20.20;59.30;;;;;;4891819;28;86863;-71
2022/05/07 05:06:41;;;;;;;5.05;3.90;;;20.20;59.10;;;;;;4891777;28;88167;-70
2022/05/07 05:09:08;;;;;;;4.50;3.83;;;20.20;59.30;;;;;;4891128;28;87964;-69
2022/05/07 05:11:34;;;;;;;4.32;3.22;;;20.20;59.30;;;;;;4890756;28;88402;-70
2022/05/07 05:14:01;;;;;;;4.68;3.60;;;20.30;59.20;;;;;;4890642;28;87483;-70
2022/05/07 05:16:27;;;;;;;4.60;3.92;;;20.20;59.30;;;;;;4891997;28;88058;-72
2022/05/07 05:18:53;;;;;;;4.68;3.80;;;20.20;59.30;;;;;;4893103;28;87956;-69
2022/05/07 05:21:19;;;;;;;5.72;3.92;;;20.20;59.20;;;;;;4895380;28;87636;-73
2022/05/07 05:23:46;;;;;;;7.95;3.80;;;20.20;59.20;;;;;;4894775;28;87370;-70
2022/05/07 05:26:15;;;;;;;5.18;3.72;;;20.30;59.40;;;;;;4894361;28;87939;-72
2022/05/07 05:28:42;;;;;;;5.28;3.85;;;20.30;59.30;;;;;;4895070;28;87457;-68
2022/05/07 05:31:09;;;;;;;5.20;3.67;;;20.20;58.80;;;;;;4909648;28;88155;-70
2022/05/07 05:33:34;;;;;;;7.55;4.38;;;20.20;58.90;;;;;;4894086;28;87478;-71
2022/05/07 05:36:00;;;;;;;4.72;3.45;;;20.20;59.20;;;;;;4892432;28;88891;-71
2022/05/07 05:38:26;;;;;;;6.18;3.88;;;20.20;59.50;;;;;;4891578;28;89490;-68
2022/05/07 05:40:51;;;;;;;4.57;3.88;;;20.20;59.50;;;;;;4893392;28;87739;-71
2022/05/07 05:43:20;;;;;;;5.22;3.97;;;20.20;59.60;;;;;;4893634;28;87484;-70
2022/05/07 05:45:46;;;;;;;4.97;3.87;;;20.20;60.00;;;;;;4895102;28;88116;-74
2022/05/07 05:48:12;;;;;;;7.97;3.90;;;20.20;60.50;;;;;;4893017;28;91410;-72
2022/05/07 05:50:40;;;;;;;4.60;3.60;;;20.30;61.10;;;;;;4894520;28;87317;-68
2022/05/07 05:53:07;;;;;;;6.68;4.50;;;20.30;60.20;;;;;;4894976;28;87209;-72
2022/05/07 05:55:33;;;;;;;6.75;4.30;;;20.20;60.20;;;;;;4893594;28;87186;-71
2022/05/07 05:57:59;;;;;;;8.00;4.18;;;20.20;60.80;;;;;;4893742;28;87822;-70
2022/05/07 06:00:24;;;;;;;6.05;4.60;;;20.20;60.50;;;;;;4894807;28;88110;-71
2022/05/07 06:02:50;;;;;;;5.97;4.65;;;20.30;60.80;;;;;;4894773;28;87589;-71
2022/05/07 06:05:17;;;;;;;6.47;4.68;;;20.20;60.70;;;;;;4893126;28;87696;-70
2022/05/07 06:07:43;;;;;;;7.05;4.47;;;20.20;60.70;;;;;;4893263;28;87881;-68
2022/05/07 06:10:09;;;;;;;5.35;4.60;;;20.30;61.00;;;;;;4892498;28;88062;-69
2022/05/07 06:12:35;;;;;;;5.32;3.92;;;20.30;60.90;;;;;;4892134;28;90162;-69
2022/05/07 06:15:01;;;;;;;6.85;4.03;;;20.20;60.80;;;;;;4892980;28;90722;-71
2022/05/07 06:17:26;;;;;;;5.82;4.32;;;20.20;60.90;;;;;;4894726;28;87875;-71
2022/05/07 06:19:52;;;;;;;5.22;4.18;;;20.30;61.00;;;;;;4893370;28;88069;-69
2022/05/07 06:22:18;;;;;;;7.18;4.68;;;20.20;60.90;;;;;;4908031;28;90141;-71
2022/05/07 06:27:28;;;;;;;7.15;4.40;;;20.20;60.70;;;;;;4892785;28;87808;-67
2022/05/07 06:29:58;;;;;;;6.53;4.97;;;20.20;60.80;;;;;;4892072;28;87316;-68
2022/05/07 06:32:31;;;;;;;5.15;4.40;;;20.20;61.10;;;;;;4892433;28;87568;-69
2022/05/07 06:34:57;;;;;;;5.13;4.25;;;20.20;60.80;;;;;;4894207;28;88811;-69
2022/05/07 06:37:23;;;;;;;6.35;4.18;;;20.20;60.90;;;;;;4893993;28;88086;-69
2022/05/07 06:39:48;;;;;;;5.88;3.97;;;20.20;60.70;;;;;;4893354;28;87723;-68
2022/05/07 06:42:15;;;;;;;5.45;4.50;;;20.20;60.80;;;;;;4893844;28;87458;-70
2022/05/07 06:44:41;;;;;;;7.78;4.28;;;20.20;60.40;;;;;;4893697;28;87700;-70
2022/05/07 06:47:07;;;;;;;6.47;4.15;;;20.20;60.50;;;;;;4893456;28;87844;-68
2022/05/07 06:49:33;;;;;;;5.53;4.53;;;20.20;60.50;;;;;;4893779;28;88137;-70
2022/05/07 06:51:58;;;;;;;6.93;4.00;;;20.20;60.20;;;;;;4893326;28;87509;-69
2022/05/07 06:54:24;;;;;;;5.90;3.88;;;20.20;60.30;;;;;;4891940;28;92142;-71
2022/05/07 06:56:50;;;;;;;9.40;4.13;;;20.20;60.40;;;;;;4892901;28;87615;-70
2022/05/07 06:59:16;;;;;;;7.68;4.55;;;20.20;60.60;;;;;;4893287;28;87958;-72
2022/05/07 07:01:41;;;;;;;10.18;4.47;;;20.20;60.50;;;;;;4890912;28;90292;-71
2022/05/07 07:04:07;;;;;;;18.13;6.18;;;20.20;60.60;;;;;;4892472;28;87639;-71
2022/05/07 07:06:33;;;;;;;21.05;7.32;;;20.20;61.50;;;;;;4892136;28;87250;-72
2022/05/07 07:08:59;;;;;;;11.77;5.40;;;20.20;61.90;;;;;;4892085;28;87921;-68
2022/05/07 07:11:27;;;;;;;20.70;6.53;;;20.20;60.80;;;;;;4893074;28;88037;-71
2022/05/07 07:13:53;;;;;;;17.73;6.90;;;20.20;61.40;;;;;;4891535;28;88589;-71
2022/05/07 07:16:18;;;;;;;19.63;6.60;;;20.20;61.30;;;;;;4891842;28;88163;-72
2022/05/07 07:18:44;;;;;;;17.40;6.47;;;20.20;61.40;;;;;;4893336;28;87737;-71
2022/05/07 07:21:11;;;;;;;21.10;7.10;;;20.20;61.50;;;;;;4893045;28;87648;-71
2022/05/07 07:23:37;;;;;;;37.42;10.38;;;20.20;61.60;;;;;;4890980;28;91226;-69
2022/05/07 07:26:03;;;;;;;36.63;8.93;;;20.20;61.40;;;;;;4892069;28;88348;-68
2022/05/07 07:28:28;;;;;;;37.85;11.25;;;20.30;61.50;;;;;;4892730;28;87859;-71
2022/05/07 07:30:54;;;;;;;23.40;7.30;;;20.20;61.10;;;;;;4892341;28;87184;-70
2022/05/07 07:33:20;;;;;;;16.48;7.25;;;20.20;61.30;;;;;;4891700;28;88455;-70
2022/05/07 07:35:45;;;;;;;20.85;7.05;;;20.30;61.80;;;;;;4891414;28;88288;-72
2022/05/07 07:38:12;;;;;;;32.28;8.25;;;20.30;61.60;;;;;;4891318;28;88585;-71
2022/05/07 07:40:39;;;;;;;26.65;8.10;;;20.30;61.90;;;;;;4891353;28;87976;-72
2022/05/07 07:43:04;;;;;;;28.55;8.82;;;20.30;61.70;;;;;;4891801;28;89225;-70
2022/05/07 07:48:15;;;;;;;29.60;8.23;;;20.30;61.80;;;;;;4894589;28;87063;-73
2022/05/07 07:50:41;;;;;;;29.20;9.40;;;20.30;61.80;;;;;;4892116;28;86991;-73
2022/05/07 07:53:09;;;;;;;27.63;8.27;;;20.30;61.60;;;;;;4892605;28;88121;-70
2022/05/07 07:55:36;;;;;;;30.65;8.88;;;20.40;61.70;;;;;;4891382;28;90881;-72
2022/05/07 07:58:04;;;;;;;35.58;11.35;;;20.30;61.30;;;;;;4892214;28;88134;-69
2022/05/07 08:00:30;;;;;;;29.50;8.63;;;20.30;61.60;;;;;;4891653;28;87202;-71
2022/05/07 08:02:59;;;;;;;29.98;9.48;;;20.30;62.40;;;;;;4891206;28;88637;-70
2022/05/07 08:05:33;;;;;;;28.45;9.82;;;20.30;61.40;;;;;;4890710;28;91258;-74
2022/05/07 08:13:36;;;;;;;23.63;8.75;;;20.40;61.40;;;;;;4891828;28;87635;-68
2022/05/07 08:16:03;;;;;;;33.10;10.20;;;20.40;61.40;;;;;;4891858;28;87902;-71
2022/05/07 08:18:29;;;;;;;29.50;9.27;;;20.40;61.40;;;;;;4889486;28;88212;-71
2022/05/07 08:20:56;;;;;;;24.17;9.63;;;20.30;61.60;;;;;;4890326;28;86944;-68
2022/05/07 08:23:22;;;;;;;31.30;8.50;;;20.40;61.80;;;;;;4891522;28;87840;-70
2022/05/07 08:25:48;;;;;;;27.60;9.40;;;20.40;61.50;;;;;;4892024;28;87719;-71
2022/05/07 08:28:15;;;;;;;26.17;9.23;;;20.40;61.80;;;;;;4891519;28;88778;-69
2022/05/07 08:30:41;;;;;;;28.17;9.60;;;20.40;62.00;;;;;;4888871;28;90934;-70
2022/05/07 08:33:07;;;;;;;24.20;8.95;;;20.40;62.10;;;;;;4891305;28;88196;-70
2022/05/07 08:35:32;;;;;;;28.27;9.38;;;20.40;62.30;;;;;;4853469;28;88109;-71
2022/05/07 08:37:58;;;;;;;27.88;9.20;;;20.40;62.30;;;;;;4889544;28;87744;-71
2022/05/07 08:40:26;;;;;;;31.70;9.27;;;20.40;62.30;;;;;;4889478;28;89116;-71
2022/05/07 08:42:53;;;;;;;28.00;9.30;;;20.40;62.10;;;;;;4890628;28;91569;-72
2022/05/07 08:45:18;;;;;;;34.75;9.95;;;20.40;62.00;;;;;;4890769;28;91513;-69
2022/05/07 08:47:44;;;;;;;24.38;9.18;;;20.40;62.50;;;;;;4889837;28;87746;-72
2022/05/07 08:50:13;;;;;;;27.27;10.05;;;20.40;62.40;;;;;;4889428;28;87785;-68
2022/05/07 08:52:43;;;;;;;24.90;9.63;;;20.40;62.50;;;;;;4890518;28;88858;-69
2022/05/07 08:55:12;;;;;;;31.15;9.38;;;20.40;62.40;;;;;;4893674;28;88785;-70
2022/05/07 08:57:39;;;;;;;20.05;9.18;;;20.50;62.50;;;;;;4894049;28;88170;-72
2022/05/07 09:00:07;;;;;;;18.58;6.03;;;20.50;62.10;;;;;;4893588;28;89913;-71
2022/05/07 09:02:45;;;;;;;25.85;7.82;;;20.50;62.50;;;;;;4894483;28;90337;-70
2022/05/07 09:05:13;;;;;;;20.15;7.70;;;20.50;62.40;;;;;;4895051;28;87421;-73
2022/05/07 09:07:41;;;;;;;26.13;8.93;;;20.60;62.40;;;;;;4894822;28;87527;-71
2022/05/07 09:10:13;;;;;;;35.40;10.55;;;20.60;61.90;;;;;;4894783;28;87516;-71
2022/05/07 09:12:38;;;;;;;35.35;10.82;;;20.60;61.80;;;;;;4893841;28;88605;-71
2022/05/07 09:15:06;;;;;;;35.03;10.95;;;20.70;62.00;;;;;;4893537;28;87916;-72
2022/05/07 09:17:33;;;;;;;32.17;11.10;;;20.60;61.60;;;;;;4893298;28;88795;-70
2022/05/07 09:20:09;;;;;;;33.85;11.30;;;20.60;61.30;;;;;;4893400;28;87234;-70
2022/05/07 09:22:35;;;;;;;35.83;12.25;;;20.60;61.50;;;;;;4893224;28;88493;-69
2022/05/07 09:25:00;;;;;;;34.53;11.55;;;20.60;61.90;;;;;;4893397;28;88272;-72
2022/05/07 09:27:26;;;;;;;35.42;11.15;;;20.60;62.60;;;;;;4893156;28;87752;-70
2022/05/07 09:30:01;;;;;;;31.65;11.95;;;20.60;62.40;;;;;;4891928;28;87912;-70
2022/05/07 09:32:36;;;;;;;31.35;11.80;;;20.60;63.00;;;;;;4892878;28;88096;-68
2022/05/07 09:37:46;;;;;;;32.58;11.07;;;20.60;63.50;;;;;;4892612;28;88097;-68
2022/05/07 09:40:12;;;;;;;37.47;11.93;;;20.60;63.90;;;;;;4892194;28;87473;-68
2022/05/07 09:42:39;;;;;;;35.42;12.57;;;20.70;63.50;;;;;;4890105;28;92131;-68
2022/05/07 09:45:06;;;;;;;35.80;10.50;;;20.60;63.10;;;;;;4893397;28;88835;-68
2022/05/07 09:47:33;;;;;;;44.05;12.43;;;20.60;63.70;;;;;;4892992;28;87960;-67
2022/05/07 09:58:19;;;;;;;32.45;11.98;;;20.60;62.50;;;;;;4893651;28;87479;-68
2022/05/07 10:01:20;;;;;;;31.67;11.75;;;20.60;63.40;;;;;;4892560;28;87008;-68
2022/05/07 10:04:09;;;;;;;29.88;11.95;;;20.60;63.90;;;;;;4892974;28;88052;-68
2022/05/07 10:06:49;;;;;;;30.88;12.30;;;20.60;64.70;;;;;;4891129;28;87844;-68
2022/05/07 10:09:24;;;;;;;25.88;11.05;;;20.50;65.20;;;;;;4890590;28;89061;-68
2022/05/07 10:11:55;;;;;;;33.88;11.95;;;20.60;64.90;;;;;;4891615;28;87192;-68
2022/05/07 10:14:30;;;;;;;32.50;11.88;;;20.60;65.30;;;;;;4891109;28;90799;-68
2022/05/07 10:17:09;;;;;;;29.73;11.82;;;20.60;64.90;;;;;;4892862;28;87922;-68
2022/05/07 10:19:36;;;;;;;28.85;11.27;;;20.60;65.00;;;;;;4892853;28;86931;-69
2022/05/07 10:22:02;;;;;;;29.15;12.45;;;20.60;65.30;;;;;;4893003;28;87937;-68
2022/05/07 10:24:28;;;;;;;30.55;11.38;;;20.60;65.10;;;;;;4891070;28;90779;-69
2022/05/07 10:26:54;;;;;;;30.88;11.35;;;20.60;65.00;;;;;;4893072;28;88381;-68
2022/05/07 10:29:21;;;;;;;43.63;12.82;;;20.60;65.00;;;;;;4891375;28;87083;-68
2022/05/07 10:31:47;;;;;;;30.10;10.93;;;20.60;65.10;;;;;;4893058;28;87706;-69
2022/05/07 10:34:27;;;;;;;27.80;11.35;;;20.60;64.80;;;;;;4892308;28;89308;-68
2022/05/07 10:37:00;;;;;;;29.90;11.80;;;20.60;64.70;;;;;;4892902;28;88038;-68
2022/05/07 10:39:26;;;;;;;25.75;11.20;;;20.60;65.30;;;;;;4893203;28;88109;-69
2022/05/07 10:41:52;;;;;;;28.83;11.52;;;20.60;65.40;;;;;;4907226;28;89490;-68
2022/05/07 10:44:34;;;;;;;33.03;11.05;;;20.60;65.70;;;;;;4892396;28;88329;-68
2022/05/07 10:47:14;;;;;;;28.48;11.88;;;20.70;67.10;;;;;;4892136;28;87926;-69
2022/05/07 10:49:54;;;;;;;30.00;12.07;;;20.70;65.70;;;;;;4892685;28;87384;-68
2022/05/07 10:52:31;;;;;;;34.28;11.80;;;20.70;66.20;;;;;;4892251;28;87032;-68
2022/05/07 10:55:08;;;;;;;22.88;10.85;;;20.70;66.60;;;;;;4890754;28;91350;-70
2022/05/07 10:57:41;;;;;;;26.25;10.32;;;20.70;66.90;;;;;;4891700;28;87773;-68
2022/05/07 11:00:13;;;;;;;27.42;11.52;;;20.70;66.50;;;;;;4891853;28;87882;-69
2022/05/07 11:02:39;;;;;;;24.90;10.90;;;20.70;66.70;;;;;;4891776;28;87770;-70
2022/05/07 11:05:05;;;;;;;25.65;10.98;;;20.80;66.40;;;;;;4890752;28;89491;-70
2022/05/07 11:07:32;;;;;;;30.70;11.52;;;20.80;64.90;;;;;;4892324;28;87749;-69
2022/05/07 11:09:58;;;;;;;22.92;9.43;;;20.80;65.00;;;;;;4891372;28;87555;-68
2022/05/07 11:12:26;;;;;;;24.30;10.38;;;20.80;64.40;;;;;;4892846;28;87577;-67
2022/05/07 11:14:52;;;;;;;21.95;9.15;;;20.70;65.10;;;;;;4891892;28;87631;-69
2022/05/07 11:17:40;;;;;;;29.58;9.43;;;20.70;65.00;;;;;;4891806;28;87338;-68
2022/05/07 11:20:07;;;;;;;21.98;10.45;;;20.70;64.70;;;;;;4892932;28;87535;-69
2022/05/07 11:22:33;;;;;;;23.88;9.98;;;20.70;64.70;;;;;;4892688;28;87352;-68
2022/05/07 11:25:03;;;;;;;30.27;10.23;;;20.70;64.80;;;;;;4891062;28;88452;-68
2022/05/07 11:27:33;;;;;;;22.23;9.57;;;20.60;65.30;;;;;;4891899;28;88231;-69
2022/05/07 11:30:04;;;;;;;;;;;20.60;65.50;;;;;;4892792;28;87893;-68
2022/05/07 11:32:41;;;;;;;19.52;10.20;;;20.60;65.40;;;;;;4893349;28;87024;-68
2022/05/07 11:35:08;;;;;;;28.55;10.73;;;20.60;65.50;;;;;;4890985;28;87718;-68
2022/05/07 11:37:44;;;;;;;19.63;10.23;;;20.60;65.30;;;;;;4890976;28;88100;-68
2022/05/07 11:40:12;;;;;;;19.13;10.52;;;20.70;65.50;;;;;;4891273;28;87654;-69
2022/05/07 11:42:45;;;;;;;19.70;10.63;;;20.60;65.60;;;;;;4890845;28;86942;-69
2022/05/07 11:45:27;;;;;;;18.35;9.77;;;20.60;65.50;;;;;;4889662;28;90876;-68
2022/05/07 11:48:00;;;;;;;21.27;10.52;;;20.60;65.60;;;;;;4892176;28;87338;-68
2022/05/07 11:50:27;;;;;;;24.27;10.50;;;20.70;65.50;;;;;;4891946;28;88014;-68
2022/05/07 11:52:53;;;;;;;22.77;10.10;;;20.70;65.40;;;;;;4891259;28;87418;-68
2022/05/07 11:55:27;;;;;;;22.15;10.70;;;20.60;65.50;;;;;;4892686;28;88246;-69
2022/05/07 11:57:54;;;;;;;26.25;10.73;;;20.70;65.50;;;;;;4891240;28;87932;-69
2022/05/07 12:00:26;;;;;;;23.52;10.65;;;20.70;65.10;;;;;;4888185;28;88175;-69
2022/05/07 12:02:56;;;;;;;24.38;10.40;;;20.70;65.70;;;;;;4885744;28;88347;-69
2022/05/07 12:05:24;;;;;;;21.02;10.63;;;20.70;65.20;;;;;;4891207;28;87981;-70
2022/05/07 12:07:50;;;;;;;15.40;7.88;;;20.70;65.30;;;;;;4889533;28;90188;-69
2022/05/07 12:10:18;;;;;;;20.15;7.78;;;20.70;63.50;;;;;;4906196;28;87844;-70
2022/05/07 12:12:44;;;;;;;14.63;8.40;;;20.70;63.20;;;;;;4891704;28;87922;-70
2022/05/07 12:15:11;;;;;;;23.27;9.65;;;20.70;63.60;;;;;;4891123;28;90761;-70
2022/05/07 12:17:52;;;;;;;17.50;9.52;;;20.70;64.20;;;;;;4891272;28;88210;-68
2022/05/07 12:20:24;;;;;;;18.95;10.55;;;20.70;64.50;;;;;;4906586;28;87482;-69
2022/05/07 12:44:53;;;;;;;22.80;9.95;;;20.80;63.80;;;;;;5046883;27;85897;-84
2022/05/07 12:47:19;;;;;;;17.13;9.63;;;20.70;65.10;;;;;;5036082;28;85688;-82
2022/05/07 12:49:45;;;;;;;15.48;9.13;;;20.70;65.00;;;;;;4967557;27;86481;-84
2022/05/07 12:52:10;;;;;;;15.57;9.15;;;20.70;65.00;;;;;;4975219;28;86513;-84
2022/05/07 12:54:38;;;;;;;18.42;9.88;;;20.70;64.60;;;;;;4976902;28;86561;-81
2022/05/07 12:57:09;;;;;;;17.48;9.25;;;20.70;64.40;;;;;;4976068;28;86151;-81
2022/05/07 12:59:37;;;;;;;16.40;9.00;;;20.70;64.50;;;;;;4973033;28;86776;-81
2022/05/07 13:02:04;;;;;;;14.43;8.38;;;20.70;64.50;;;;;;4974954;28;89815;-81
2022/05/07 13:04:29;;;;;;;14.88;9.05;;;20.70;64.50;;;;;;4970564;28;85861;-80
2022/05/07 13:06:56;;;;;;;14.52;8.32;;;20.70;64.20;;;;;;4975661;28;85703;-81
2022/05/07 13:09:21;;;;;;;16.20;9.10;;;20.70;64.20;;;;;;4976916;28;85907;-81
2022/05/07 13:11:48;;;;;;;14.25;9.13;;;20.80;63.80;;;;;;4976811;28;86895;-81
2022/05/07 13:14:13;;;;;;;15.57;9.23;;;20.80;64.10;;;;;;4976628;28;86944;-81
2022/05/07 13:16:39;;;;;;;16.52;9.07;;;20.70;64.40;;;;;;4975252;28;85682;-82
2022/05/07 13:19:04;;;;;;;18.13;10.95;;;20.80;64.30;;;;;;4976117;28;85665;-81
2022/05/07 13:21:30;;;;;;;21.67;9.80;;;20.90;63.60;;;;;;4974057;28;86388;-80
2022/05/07 13:23:56;;;;;;;21.95;9.93;;;20.90;64.10;;;;;;4973519;28;87208;-80
2022/05/07 13:26:22;;;;;;;20.75;9.18;;;20.90;64.40;;;;;;4975575;28;85772;-79
2022/05/07 13:28:48;;;;;;;27.02;9.77;;;20.90;64.80;;;;;;4975054;28;86161;-80
2022/05/07 13:31:15;;;;;;;19.58;9.63;;;20.90;64.80;;;;;;4974170;28;86987;-79
2022/05/07 13:33:40;;;;;;;28.17;9.88;;;20.90;65.10;;;;;;4973349;28;85773;-80